This is the latest recevied weather packets stored in our database for station/object NU3S-7. If no packets are shown the sender has not sent any weather packets the latest 10 day(s).
| Time | Temp. | Humidity | Pressure | Rain* | Wind** | Luminosity | Snow |
|---|---|---|---|---|---|---|---|
| 1777912508 | 19.44° C | 64% | 1009.5 hPa | 0 mm | - | - | - |
| 1777907105 | 17.22° C | 66% | 1010.3 hPa | 0 mm | - | - | - |
| 1777904104 | 16.11° C | 67% | 1010.2 hPa | 0 mm | - | - | - |
| 1777903502 | 16.11° C | 67% | 1010.2 hPa | 0 mm | - | - | - |
| 1777901692 | 15° C | 68% | 1010.6 hPa | 0 mm | - | - | - |
| 1777901092 | 15° C | 69% | 1010.7 hPa | 0 mm | - | - | - |
| 1777900492 | 14.44° C | 70% | 1010.8 hPa | 0 mm | - | - | - |
| 1777899891 | 13.89° C | 71% | 1010.8 hPa | 0 mm | - | - | - |
| 1777899303 | 13.33° C | 71% | 1010.8 hPa | 0 mm | - | - | - |
| 1777898691 | 13.33° C | 73% | 1010.7 hPa | 0 mm | - | - | - |
| 1777898090 | 12.78° C | 74% | 1010.6 hPa | 0 mm | - | - | - |
| 1777897490 | 12.22° C | 74% | 1010.6 hPa | 0 mm | - | - | - |
| 1777896889 | 12.22° C | 75% | 1010.5 hPa | 0 mm | - | - | - |
| 1777895088 | 11.11° C | 77% | 1010.6 hPa | 0 mm | - | - | - |
| 1777894488 | 10.56° C | 77% | 1010.7 hPa | 0 mm | - | - | - |
| 1777893888 | 11.11° C | 77% | 1010.7 hPa | 0 mm | - | - | - |
| 1777893287 | 10.56° C | 77% | 1010.9 hPa | 0 mm | - | - | - |
| 1777892687 | 10.56° C | 77% | 1010.9 hPa | 0 mm | - | - | - |
| 1777892087 | 10° C | 77% | 1010.8 hPa | 0 mm | - | - | - |
| 1777891486 | 10° C | 76% | 1010.8 hPa | 0 mm | - | - | - |
| 1777890886 | 10° C | 76% | 1010.7 hPa | 0 mm | - | - | - |
| 1777890285 | 10° C | 76% | 1010.8 hPa | 0 mm | - | - | - |
| 1777889685 | 10° C | 75% | 1010.7 hPa | 0 mm | - | - | - |
| 1777889085 | 10.56° C | 75% | 1010.8 hPa | 0 mm | - | - | - |
| 1777887284 | 10.56° C | 74% | 1011.2 hPa | 0 mm | - | - | - |
* Rain since midnight (hover to see other rain measurements)
** Current wind speed in m/s (hover to see current wind gust speed)